Hermanos Serdan International, Mexico

10:43 PM CST on December 21, 2014 (GMT -0600)
Hermanos Serdan International | Change Station
CLOSE
Current Station
Airport
Location: Puebla,
Elevation: 7359 ft
Nearby Weather Stations

Elev 7359 ft 19.16 °N, 98.37 °W | Updated 56 minutes ago

Overcast
Overcast
54 °F
Feels Like 54 °F
N
4
Wind Variable Wind from WSW

Today
High -- | Low -- °F
--% Chance of Precip.
Yesterday
High -- | Low -- °F
Precip. -- in
7:02 AM 6:01 PM
New Moon, 0% visible
Pressure 30.28 in
Visibility 8.0 miles
Clouds Scattered Clouds 10000 ft
Overcast 23000 ft
Dew Point 37 °F
Humidity 54%
Rainfall 0.00 in
Snow Depth Not available.
UV 0 out of 12
Pollen Not available.
Air Quality Not available.
Flu Activity Not available.
METAR MMPB 220347Z 24003KT 8SM SCT100 OVC230 12/03 A3028 RMK 8/077

More Conditions Fewer Conditions

Pressure 30.28 in
Visibility 8.0 miles
Clouds Scattered Clouds 10000 ft
Overcast 23000 ft
Dew Point 37 °F
Humidity 54%
Rainfall 0.00 in
Snow Depth Not available.
UV 0 out of 12
Pollen Not available.
Air Quality Not available.
Flu Activity Not available.
METAR MMPB 220347Z 24003KT 8SM SCT100 OVC230 12/03 A3028 RMK 8/077

More Conditions Fewer Conditions

10-Day Weather Forecast

Almanac

Astronomy

Dec. 21, 2014 Rise Set
Actual Time
Civil Twilight
Nautical Twilight
Astronomical Twilight
Moon
Length of Visible Light
Length of Day
Tomorrow will be .
, % of the Moon is Illuminated

Today's Extremes

Country Highs Country Lows

Community

WunderPhotos

Upload Photos

1,779,540 photos uploaded!

WunderBlogs® & News

Nearby

Air Quality

  Air Quality AQ Index Pollutant
Not available.

Snow Depth

Station Depth Elevation

Earthquake Activity

City Distance Mag. Time & Date
Minimum magnitude displayed is 2.5.

Coastal Water Temperatures

Place Temperature

Nearby Weather Stations